Morejarl — LLWD — position and weather

sailwx.info

Track history (hours):
 
Tides and Currents Weather Stations Pressure Air Temp Water Temp Dewpoint Dewpoint Depression Visibility Wind Speed Wind Dir Waves Ship Positions

Morejarl

Last reported at 2014-Oct-31 13:31 UTC. Time now 2014-Oct-31 14:25 UTC.
Position N 63°41' E 009°40'.

Length 35 m; draft 1.9 m.

Type: High speed craft. MMSI: 258561000.

Date/timePositionNaut miles runAvg speedWind from/ knotsBaromVisibWave heightAir tempDewpointWater temp
2014-Oct-31 13:31N 63°41' E 009°40'13 6.4
2014-Oct-31 11:33N 63°30' E 009°55'1313.5
2014-Oct-31 10:34N 63°26' E 010°24'0 0.0
2014-Oct-31 09:34N 63°26' E 010°24'0 0.0
2014-Oct-31 08:34N 63°26' E 010°24'0 0.0
2014-Oct-31 07:34N 63°26' E 010°24'0 0.0
2014-Oct-31 06:34N 63°26' E 010°24'0 0.0
2014-Oct-31 05:34N 63°26' E 010°24'0 0.0
2014-Oct-31 04:34N 63°26' E 010°24'0 0.0
2014-Oct-31 03:34N 63°26' E 010°24'0 0.0
2014-Oct-31 02:34N 63°26' E 010°24'0 0.0
2014-Oct-31 01:34N 63°26' E 010°24'0 0.0
2014-Oct-31 00:34N 63°26' E 010°24'0 0.0
2014-Oct-30 23:34N 63°26' E 010°24'0 0.0
2014-Oct-30 22:34N 63°26' E 010°24'0 0.0
2014-Oct-30 21:34N 63°26' E 010°24'0 0.0
2014-Oct-30 20:34N 63°26' E 010°24'0 0.0
2014-Oct-30 19:34N 63°26' E 010°24'1211.7
2014-Oct-30 18:34N 63°29' E 009°58'14 2.4
2014-Oct-30 12:26N 63°37' E 009°31'1820.1
2014-Oct-30 11:34N 63°29' E 010°06'8 8.3
2014-Oct-30 10:34N 63°26' E 010°24'2422.0
2014-Oct-30 09:28N 63°41' E 009°41'5 0.3
2014-Oct-29 16:22N 63°38' E 009°48'1923.7
2014-Oct-29 15:34N 63°26' E 010°23'1 0.5
2014-Oct-29 14:34N 63°27' E 010°22'2322.9
2014-Oct-29 13:32N 63°41' E 009°40'6 1.2
2014-Oct-29 08:30N 63°37' E 009°31'1516.2
2014-Oct-29 07:34N 63°29' E 009°60'1111.2
2014-Oct-29 06:34N 63°26' E 010°24'1716.8
2014-Oct-29 05:34N 63°33' E 009°50'9 2.8
2014-Oct-29 02:23N 63°41' E 009°40'0 0.0
2014-Oct-29 01:33N 63°41' E 009°40'0 0.0
2014-Oct-29 00:31N 63°41' E 009°40'0 0.0
2014-Oct-28 23:13N 63°41' E 009°40'11 4.3
2014-Oct-28 20:34N 63°31' E 009°50'1615.6
2014-Oct-28 19:34N 63°26' E 010°24'1615.6
2014-Oct-28 18:34N 63°31' E 009°50'12 1.9
2014-Oct-28 12:28N 63°36' E 009°26'1920.3
2014-Oct-28 11:34N 63°29' E 010°05'9 8.8
2014-Oct-28 10:34N 63°26' E 010°24'2422.3
2014-Oct-28 09:28N 63°41' E 009°40'4 0.2
2014-Oct-27 16:22N 63°38' E 009°46'2125.4
2014-Oct-27 15:34N 63°26' E 010°23'0 0.0
2014-Oct-27 14:34N 63°26' E 010°23'2323.2
2014-Oct-27 13:34N 63°40' E 009°42'6 1.2
2014-Oct-27 08:30N 63°37' E 009°30'1616.9
2014-Oct-27 07:33N 63°29' E 010°01'1110.6
2014-Oct-27 06:34N 63°26' E 010°24'1717.2
2014-Oct-27 05:33N 63°34' E 009°49'8 5.9
2014-Oct-27 04:11N 63°41' E 009°40'0 0.0
2014-Oct-27 03:33N 63°41' E 009°40'0 0.0
2014-Oct-27 02:33N 63°41' E 009°40'0 0.0
2014-Oct-27 01:32N 63°41' E 009°40'0 0.0
2014-Oct-27 00:31N 63°41' E 009°40'0 0.0
2014-Oct-26 23:33N 63°41' E 009°40'0 0.0
2014-Oct-26 22:33N 63°41' E 009°40'0 0.0
2014-Oct-26 20:28N 63°41' E 009°40'2427.0
2014-Oct-26 19:34N 63°26' E 010°23'0 0.3
2014-Oct-26 18:34N 63°26' E 010°24'0 0.0
2014-Oct-26 17:34N 63°26' E 010°24'0 0.0
2014-Oct-26 16:34N 63°26' E 010°24'0 0.0
2014-Oct-26 15:34N 63°26' E 010°24'0 0.0
2014-Oct-26 14:34N 63°26' E 010°24'2422.8
2014-Oct-26 13:29N 63°41' E 009°40'4 0.2
2014-Oct-25 13:31N 63°38' E 009°46'2121.6
2014-Oct-25 12:33N 63°26' E 010°24'0 0.0
2014-Oct-25 11:33N 63°26' E 010°24'0 0.0
2014-Oct-25 10:33N 63°26' E 010°24'0 0.0
2014-Oct-25 09:33N 63°26' E 010°24'0 0.0
2014-Oct-25 08:33N 63°26' E 010°24'0 0.0
2014-Oct-25 07:33N 63°26' E 010°24'0 0.0
2014-Oct-25 06:33N 63°26' E 010°24'0 0.0
2014-Oct-25 05:33N 63°26' E 010°24'0 0.0
2014-Oct-25 04:33N 63°26' E 010°24'0 0.0
2014-Oct-25 03:33N 63°26' E 010°24'0 0.0
2014-Oct-25 02:33N 63°26' E 010°24'0 0.0
2014-Oct-25 01:33N 63°26' E 010°24'0 0.0
2014-Oct-25 00:33N 63°26' E 010°24'0 0.0
2014-Oct-24 23:33N 63°26' E 010°24'0 0.0
2014-Oct-24 22:33N 63°26' E 010°24'0 0.0
2014-Oct-24 21:33N 63°26' E 010°24'0 0.0
2014-Oct-24 20:33N 63°26' E 010°24'0 0.0
2014-Oct-24 19:33N 63°26' E 010°24'0 0.0
2014-Oct-24 18:33N 63°26' E 010°24'0 0.0
2014-Oct-24 17:33N 63°26' E 010°24'0 0.0
2014-Oct-24 16:33N 63°26' E 010°24'0 0.0
2014-Oct-24 15:33N 63°26' E 010°24'0 0.0
2014-Oct-24 14:33N 63°26' E 010°24'4 3.9
2014-Oct-24 13:33N 63°28' E 010°16'2017.4
2014-Oct-24 12:23N 63°41' E 009°41'8 1.7
2014-Oct-24 07:32N 63°36' E 009°27'1718.0
2014-Oct-24 06:33N 63°29' E 010°03'10 9.7
2014-Oct-24 05:33N 63°26' E 010°24'1817.5
2014-Oct-24 04:33N 63°35' E 009°49'8 1.2
2014-Oct-23 22:16N 63°41' E 009°40'0 0.0
2014-Oct-23 21:31N 63°41' E 009°40'0 0.0
2014-Oct-23 20:08N 63°41' E 009°40'1220.4
2014-Oct-23 19:33N 63°30' E 009°50'1615.7
2014-Oct-23 18:33N 63°26' E 010°24'1313.1
2014-Oct-23 17:33N 63°30' E 009°56'13 2.1
2014-Oct-23 11:23N 63°37' E 009°32'1821.7
2014-Oct-23 10:33N 63°28' E 010°07'8 7.9
2014-Oct-23 09:33N 63°26' E 010°24'2422.9
2014-Oct-23 08:29N 63°41' E 009°40'8 0.5
2014-Oct-22 16:06N 63°36' E 009°26'917.2
2014-Oct-22 15:33N 63°36' E 009°47'1919.2
2014-Oct-22 14:33N 63°26' E 010°24'0 0.1
2014-Oct-22 13:33N 63°26' E 010°24'2423.7
2014-Oct-22 12:32N 63°41' E 009°40'9 1.8
2014-Oct-22 07:32N 63°35' E 009°26'1616.7
2014-Oct-22 06:33N 63°29' E 009°59'1111.4
2014-Oct-22 05:33N 63°26' E 010°24'1717.3
2014-Oct-22 04:33N 63°34' E 009°49'8 7.4
2014-Oct-22 03:27N 63°41' E 009°40'0 0.0
2014-Oct-22 02:30N 63°41' E 009°40'0 0.0
2014-Oct-21 23:27N 63°41' E 009°40'0 0.0
2014-Oct-21 22:32N 63°41' E 009°40'0 0.0
2014-Oct-21 21:33N 63°41' E 009°40'0 0.0
2014-Oct-21 20:30N 63°41' E 009°40'1212.5
2014-Oct-21 19:33N 63°30' E 009°50'1615.7
2014-Oct-21 18:33N 63°26' E 010°24'1414.5
2014-Oct-21 17:33N 63°30' E 009°53'  
Track history (hours):
 
Tides and Currents Weather Stations Pressure Air Temp Water Temp Dewpoint Dewpoint Depression Visibility Wind Speed Wind Dir Waves Ship Positions

Morejarl

Last reported at 2014-Oct-31 13:31 UTC. Time now 2014-Oct-31 14:25 UTC.
Position N 63°41' E 009°40'.

Length 35 m; draft 1.9 m.

Type: High speed craft. MMSI: 258561000.

Date/timePositionNaut miles runAvg speedWind from/ knotsBaromVisibWave heightAir tempDewpointWater temp
2014-Oct-31 13:31N 63°41' E 009°40'13 6.4
2014-Oct-31 11:33N 63°30' E 009°55'1313.5
2014-Oct-31 10:34N 63°26' E 010°24'0 0.0
2014-Oct-31 09:34N 63°26' E 010°24'0 0.0
2014-Oct-31 08:34N 63°26' E 010°24'0 0.0
2014-Oct-31 07:34N 63°26' E 010°24'0 0.0
2014-Oct-31 06:34N 63°26' E 010°24'0 0.0
2014-Oct-31 05:34N 63°26' E 010°24'0 0.0
2014-Oct-31 04:34N 63°26' E 010°24'0 0.0
2014-Oct-31 03:34N 63°26' E 010°24'0 0.0
2014-Oct-31 02:34N 63°26' E 010°24'0 0.0
2014-Oct-31 01:34N 63°26' E 010°24'0 0.0
2014-Oct-31 00:34N 63°26' E 010°24'0 0.0
2014-Oct-30 23:34N 63°26' E 010°24'0 0.0
2014-Oct-30 22:34N 63°26' E 010°24'0 0.0
2014-Oct-30 21:34N 63°26' E 010°24'0 0.0
2014-Oct-30 20:34N 63°26' E 010°24'0 0.0
2014-Oct-30 19:34N 63°26' E 010°24'1211.7
2014-Oct-30 18:34N 63°29' E 009°58'14 2.4
2014-Oct-30 12:26N 63°37' E 009°31'1820.1
2014-Oct-30 11:34N 63°29' E 010°06'8 8.3
2014-Oct-30 10:34N 63°26' E 010°24'2422.0
2014-Oct-30 09:28N 63°41' E 009°41'5 0.3
2014-Oct-29 16:22N 63°38' E 009°48'1923.7
2014-Oct-29 15:34N 63°26' E 010°23'1 0.5
2014-Oct-29 14:34N 63°27' E 010°22'2322.9
2014-Oct-29 13:32N 63°41' E 009°40'6 1.2
2014-Oct-29 08:30N 63°37' E 009°31'1516.2
2014-Oct-29 07:34N 63°29' E 009°60'1111.2
2014-Oct-29 06:34N 63°26' E 010°24'1716.8
2014-Oct-29 05:34N 63°33' E 009°50'9 2.8
2014-Oct-29 02:23N 63°41' E 009°40'0 0.0
2014-Oct-29 01:33N 63°41' E 009°40'0 0.0
2014-Oct-29 00:31N 63°41' E 009°40'0 0.0
2014-Oct-28 23:13N 63°41' E 009°40'11 4.3
2014-Oct-28 20:34N 63°31' E 009°50'1615.6
2014-Oct-28 19:34N 63°26' E 010°24'1615.6
2014-Oct-28 18:34N 63°31' E 009°50'12 1.9
2014-Oct-28 12:28N 63°36' E 009°26'1920.3
2014-Oct-28 11:34N 63°29' E 010°05'9 8.8
2014-Oct-28 10:34N 63°26' E 010°24'2422.3
2014-Oct-28 09:28N 63°41' E 009°40'4 0.2
2014-Oct-27 16:22N 63°38' E 009°46'2125.4
2014-Oct-27 15:34N 63°26' E 010°23'0 0.0
2014-Oct-27 14:34N 63°26' E 010°23'2323.2
2014-Oct-27 13:34N 63°40' E 009°42'6 1.2
2014-Oct-27 08:30N 63°37' E 009°30'1616.9
2014-Oct-27 07:33N 63°29' E 010°01'1110.6
2014-Oct-27 06:34N 63°26' E 010°24'1717.2
2014-Oct-27 05:33N 63°34' E 009°49'8 5.9
2014-Oct-27 04:11N 63°41' E 009°40'0 0.0
2014-Oct-27 03:33N 63°41' E 009°40'0 0.0
2014-Oct-27 02:33N 63°41' E 009°40'0 0.0
2014-Oct-27 01:32N 63°41' E 009°40'0 0.0
2014-Oct-27 00:31N 63°41' E 009°40'0 0.0
2014-Oct-26 23:33N 63°41' E 009°40'0 0.0
2014-Oct-26 22:33N 63°41' E 009°40'0 0.0
2014-Oct-26 20:28N 63°41' E 009°40'2427.0
2014-Oct-26 19:34N 63°26' E 010°23'0 0.3
2014-Oct-26 18:34N 63°26' E 010°24'0 0.0
2014-Oct-26 17:34N 63°26' E 010°24'0 0.0
2014-Oct-26 16:34N 63°26' E 010°24'0 0.0
2014-Oct-26 15:34N 63°26' E 010°24'0 0.0
2014-Oct-26 14:34N 63°26' E 010°24'2422.8
2014-Oct-26 13:29N 63°41' E 009°40'4 0.2
2014-Oct-25 13:31N 63°38' E 009°46'2121.6
2014-Oct-25 12:33N 63°26' E 010°24'0 0.0
2014-Oct-25 11:33N 63°26' E 010°24'0 0.0
2014-Oct-25 10:33N 63°26' E 010°24'0 0.0
2014-Oct-25 09:33N 63°26' E 010°24'0 0.0
2014-Oct-25 08:33N 63°26' E 010°24'0 0.0
2014-Oct-25 07:33N 63°26' E 010°24'0 0.0
2014-Oct-25 06:33N 63°26' E 010°24'0 0.0
2014-Oct-25 05:33N 63°26' E 010°24'0 0.0
2014-Oct-25 04:33N 63°26' E 010°24'0 0.0
2014-Oct-25 03:33N 63°26' E 010°24'0 0.0
2014-Oct-25 02:33N 63°26' E 010°24'0 0.0
2014-Oct-25 01:33N 63°26' E 010°24'0 0.0
2014-Oct-25 00:33N 63°26' E 010°24'0 0.0
2014-Oct-24 23:33N 63°26' E 010°24'0 0.0
2014-Oct-24 22:33N 63°26' E 010°24'0 0.0
2014-Oct-24 21:33N 63°26' E 010°24'0 0.0
2014-Oct-24 20:33N 63°26' E 010°24'0 0.0
2014-Oct-24 19:33N 63°26' E 010°24'0 0.0
2014-Oct-24 18:33N 63°26' E 010°24'0 0.0
2014-Oct-24 17:33N 63°26' E 010°24'0 0.0
2014-Oct-24 16:33N 63°26' E 010°24'0 0.0
2014-Oct-24 15:33N 63°26' E 010°24'0 0.0
2014-Oct-24 14:33N 63°26' E 010°24'4 3.9
2014-Oct-24 13:33N 63°28' E 010°16'2017.4
2014-Oct-24 12:23N 63°41' E 009°41'8 1.7
2014-Oct-24 07:32N 63°36' E 009°27'1718.0
2014-Oct-24 06:33N 63°29' E 010°03'10 9.7
2014-Oct-24 05:33N 63°26' E 010°24'1817.5
2014-Oct-24 04:33N 63°35' E 009°49'8 1.2
2014-Oct-23 22:16N 63°41' E 009°40'0 0.0
2014-Oct-23 21:31N 63°41' E 009°40'0 0.0
2014-Oct-23 20:08N 63°41' E 009°40'1220.4
2014-Oct-23 19:33N 63°30' E 009°50'1615.7
2014-Oct-23 18:33N 63°26' E 010°24'1313.1
2014-Oct-23 17:33N 63°30' E 009°56'13 2.1
2014-Oct-23 11:23N 63°37' E 009°32'1821.7
2014-Oct-23 10:33N 63°28' E 010°07'8 7.9
2014-Oct-23 09:33N 63°26' E 010°24'2422.9
2014-Oct-23 08:29N 63°41' E 009°40'8 0.5
2014-Oct-22 16:06N 63°36' E 009°26'917.2
2014-Oct-22 15:33N 63°36' E 009°47'1919.2
2014-Oct-22 14:33N 63°26' E 010°24'0 0.1
2014-Oct-22 13:33N 63°26' E 010°24'2423.7
2014-Oct-22 12:32N 63°41' E 009°40'9 1.8
2014-Oct-22 07:32N 63°35' E 009°26'1616.7
2014-Oct-22 06:33N 63°29' E 009°59'1111.4
2014-Oct-22 05:33N 63°26' E 010°24'1717.3
2014-Oct-22 04:33N 63°34' E 009°49'8 7.4
2014-Oct-22 03:27N 63°41' E 009°40'0 0.0
2014-Oct-22 02:30N 63°41' E 009°40'0 0.0
2014-Oct-21 23:27N 63°41' E 009°40'0 0.0
2014-Oct-21 22:32N 63°41' E 009°40'0 0.0
2014-Oct-21 21:33N 63°41' E 009°40'0 0.0
2014-Oct-21 20:30N 63°41' E 009°40'1212.5
2014-Oct-21 19:33N 63°30' E 009°50'1615.7
2014-Oct-21 18:33N 63°26' E 010°24'1414.5
2014-Oct-21 17:33N 63°30' E 009°53'  

Dump ship's entire track history